Terminal Aerodrome Forecast
Issued by NWS Binghamton, NY

Home | Current Version | Previous Version | Text Only | Print | Product List | Glossary On
Versions: 1 2 3 4 5 6 7 8 9 10 11 12 13 14 15 16 17 18 19
439
FTUS41 KBGM 271132
TAFBGM
TAF
KBGM 271132Z 2712/2812 22005KT P6SM BKN070
      TEMPO 2712/2715 -SHRA OVC045
     FM271500 27010KT P6SM BKN060
      TEMPO 2717/2721 -SHRA OVC035
     FM280300 25005KT P6SM FEW070=

USA.gov is the U.S. government's official web portal to all federal, state and local government web resources and services.